sensor_id;sensor_type;location;lat;lon;timestamp;temperature;humidity
71436;SHT31;59251;51.326;12.370;2023-04-08T00:00:19;5.55;98.97
71436;SHT31;59251;51.326;12.370;2023-04-08T00:02:44;5.47;98.89
71436;SHT31;59251;51.326;12.370;2023-04-08T00:05:10;5.58;99.20
71436;SHT31;59251;51.326;12.370;2023-04-08T00:07:35;5.50;98.93
71436;SHT31;59251;51.326;12.370;2023-04-08T00:10:01;5.54;99.79
71436;SHT31;59251;51.326;12.370;2023-04-08T00:12:27;5.52;99.98
71436;SHT31;59251;51.326;12.370;2023-04-08T00:14:52;5.58;99.99
71436;SHT31;59251;51.326;12.370;2023-04-08T00:17:17;5.61;99.99
71436;SHT31;59251;51.326;12.370;2023-04-08T00:19:43;5.65;99.80
71436;SHT31;59251;51.326;12.370;2023-04-08T00:22:09;5.57;99.45
71436;SHT31;59251;51.326;12.370;2023-04-08T00:24:35;5.55;99.35
71436;SHT31;59251;51.326;12.370;2023-04-08T00:27:01;5.54;99.40
71436;SHT31;59251;51.326;12.370;2023-04-08T00:29:27;5.62;99.35
71436;SHT31;59251;51.326;12.370;2023-04-08T00:31:52;5.58;99.01
71436;SHT31;59251;51.326;12.370;2023-04-08T00:34:18;5.54;99.12
71436;SHT31;59251;51.326;12.370;2023-04-08T00:36:43;5.55;99.42
71436;SHT31;59251;51.326;12.370;2023-04-08T00:39:09;5.54;99.26
71436;SHT31;59251;51.326;12.370;2023-04-08T00:41:35;5.55;99.10
71436;SHT31;59251;51.326;12.370;2023-04-08T00:44:00;5.51;99.36
71436;SHT31;59251;51.326;12.370;2023-04-08T00:46:26;5.51;99.75
71436;SHT31;59251;51.326;12.370;2023-04-08T00:48:51;5.52;99.57
71436;SHT31;59251;51.326;12.370;2023-04-08T00:51:18;5.55;99.34
71436;SHT31;59251;51.326;12.370;2023-04-08T00:53:43;5.60;99.42
71436;SHT31;59251;51.326;12.370;2023-04-08T00:56:09;5.61;99.43
71436;SHT31;59251;51.326;12.370;2023-04-08T00:58:35;5.58;99.33
71436;SHT31;59251;51.326;12.370;2023-04-08T01:01:30;5.54;99.67
71436;SHT31;59251;51.326;12.370;2023-04-08T01:04:06;5.51;99.43
71436;SHT31;59251;51.326;12.370;2023-04-08T01:06:37;5.52;99.49
71436;SHT31;59251;51.326;12.370;2023-04-08T01:09:08;5.54;99.27
71436;SHT31;59251;51.326;12.370;2023-04-08T01:11:34;5.61;99.23
71436;SHT31;59251;51.326;12.370;2023-04-08T01:14:04;5.57;98.79
71436;SHT31;59251;51.326;12.370;2023-04-08T01:16:30;5.55;99.17
71436;SHT31;59251;51.326;12.370;2023-04-08T01:18:56;5.51;99.26
71436;SHT31;59251;51.326;12.370;2023-04-08T01:21:22;5.51;99.99
71436;SHT31;59251;51.326;12.370;2023-04-08T01:24:03;5.46;99.99
71436;SHT31;59251;51.326;12.370;2023-04-08T01:26:31;5.51;99.99
71436;SHT31;59251;51.326;12.370;2023-04-08T01:28:58;5.44;99.99
71436;SHT31;59251;51.326;12.370;2023-04-08T01:31:25;5.44;99.80
71436;SHT31;59251;51.326;12.370;2023-04-08T01:33:51;5.44;99.88
71436;SHT31;59251;51.326;12.370;2023-04-08T01:36:17;5.43;99.66
71436;SHT31;59251;51.326;12.370;2023-04-08T01:38:45;5.41;99.59
71436;SHT31;59251;51.326;12.370;2023-04-08T01:41:11;5.43;99.65
71436;SHT31;59251;51.326;12.370;2023-04-08T01:43:38;5.41;99.99
71436;SHT31;59251;51.326;12.370;2023-04-08T01:46:05;5.37;99.75
71436;SHT31;59251;51.326;12.370;2023-04-08T01:48:33;5.43;99.63
71436;SHT31;59251;51.326;12.370;2023-04-08T01:50:59;5.46;99.64
71436;SHT31;59251;51.326;12.370;2023-04-08T01:53:24;5.48;99.30
71436;SHT31;59251;51.326;12.370;2023-04-08T01:55:55;5.43;99.23
71436;SHT31;59251;51.326;12.370;2023-04-08T01:58:21;5.40;99.20
71436;SHT31;59251;51.326;12.370;2023-04-08T02:00:47;5.40;99.71
71436;SHT31;59251;51.326;12.370;2023-04-08T02:03:16;5.46;99.25
71436;SHT31;59251;51.326;12.370;2023-04-08T02:05:42;5.40;99.39
71436;SHT31;59251;51.326;12.370;2023-04-08T02:08:07;5.46;99.53
71436;SHT31;59251;51.326;12.370;2023-04-08T02:10:33;5.48;99.35
71436;SHT31;59251;51.326;12.370;2023-04-08T02:12:58;5.46;99.09
71436;SHT31;59251;51.326;12.370;2023-04-08T02:15:26;5.46;98.96
71436;SHT31;59251;51.326;12.370;2023-04-08T02:17:59;5.44;98.93
71436;SHT31;59251;51.326;12.370;2023-04-08T02:20:34;5.47;99.04
71436;SHT31;59251;51.326;12.370;2023-04-08T02:23:12;5.48;99.21
71436;SHT31;59251;51.326;12.370;2023-04-08T02:25:40;5.48;99.10
71436;SHT31;59251;51.326;12.370;2023-04-08T02:28:09;5.52;99.18
71436;SHT31;59251;51.326;12.370;2023-04-08T02:30:36;5.51;99.81
71436;SHT31;59251;51.326;12.370;2023-04-08T02:33:03;5.54;99.58
71436;SHT31;59251;51.326;12.370;2023-04-08T02:35:30;5.48;99.75
71436;SHT31;59251;51.326;12.370;2023-04-08T02:37:55;5.54;99.39
71436;SHT31;59251;51.326;12.370;2023-04-08T02:40:31;5.55;99.32
71436;SHT31;59251;51.326;12.370;2023-04-08T02:42:57;5.51;99.31
71436;SHT31;59251;51.326;12.370;2023-04-08T02:45:29;5.41;99.77
71436;SHT31;59251;51.326;12.370;2023-04-08T02:47:55;5.48;99.83
71436;SHT31;59251;51.326;12.370;2023-04-08T02:50:20;5.50;99.76
71436;SHT31;59251;51.326;12.370;2023-04-08T02:52:46;5.46;99.74
71436;SHT31;59251;51.326;12.370;2023-04-08T02:55:11;5.52;99.91
71436;SHT31;59251;51.326;12.370;2023-04-08T02:57:38;5.52;99.81
71436;SHT31;59251;51.326;12.370;2023-04-08T03:00:05;5.48;99.87
71436;SHT31;59251;51.326;12.370;2023-04-08T03:02:31;5.54;99.99
71436;SHT31;59251;51.326;12.370;2023-04-08T03:04:56;5.57;99.99
71436;SHT31;59251;51.326;12.370;2023-04-08T03:07:22;5.54;99.99
71436;SHT31;59251;51.326;12.370;2023-04-08T03:09:47;5.60;99.72
71436;SHT31;59251;51.326;12.370;2023-04-08T03:12:12;5.46;99.99
71436;SHT31;59251;51.326;12.370;2023-04-08T03:14:38;5.47;99.56
71436;SHT31;59251;51.326;12.370;2023-04-08T03:17:03;5.51;99.46
71436;SHT31;59251;51.326;12.370;2023-04-08T03:19:28;5.50;99.38
71436;SHT31;59251;51.326;12.370;2023-04-08T03:21:54;5.50;99.26
71436;SHT31;59251;51.326;12.370;2023-04-08T03:24:19;5.37;99.99
71436;SHT31;59251;51.326;12.370;2023-04-08T03:26:45;5.31;99.99
71436;SHT31;59251;51.326;12.370;2023-04-08T03:29:10;5.43;99.99
71436;SHT31;59251;51.326;12.370;2023-04-08T03:31:35;5.46;99.99
71436;SHT31;59251;51.326;12.370;2023-04-08T03:34:01;5.41;99.99
71436;SHT31;59251;51.326;12.370;2023-04-08T03:36:26;5.43;99.99
71436;SHT31;59251;51.326;12.370;2023-04-08T03:38:52;5.47;99.99
71436;SHT31;59251;51.326;12.370;2023-04-08T03:41:17;5.46;99.94
71436;SHT31;59251;51.326;12.370;2023-04-08T03:43:43;5.40;99.99
71436;SHT31;59251;51.326;12.370;2023-04-08T03:46:08;5.33;99.99
71436;SHT31;59251;51.326;12.370;2023-04-08T03:48:33;5.34;99.99
71436;SHT31;59251;51.326;12.370;2023-04-08T03:50:59;5.31;99.99
71436;SHT31;59251;51.326;12.370;2023-04-08T03:53:24;5.40;99.99
71436;SHT31;59251;51.326;12.370;2023-04-08T03:55:52;5.37;99.99
71436;SHT31;59251;51.326;12.370;2023-04-08T03:58:17;5.39;99.99
71436;SHT31;59251;51.326;12.370;2023-04-08T04:00:43;5.26;99.99
71436;SHT31;59251;51.326;12.370;2023-04-08T04:03:08;5.30;99.99
71436;SHT31;59251;51.326;12.370;2023-04-08T04:05:37;5.31;99.99
71436;SHT31;59251;51.326;12.370;2023-04-08T04:08:02;5.26;99.99
71436;SHT31;59251;51.326;12.370;2023-04-08T04:10:28;5.22;99.99
71436;SHT31;59251;51.326;12.370;2023-04-08T04:12:53;5.24;99.99
71436;SHT31;59251;51.326;12.370;2023-04-08T04:15:18;5.29;99.99
71436;SHT31;59251;51.326;12.370;2023-04-08T04:17:47;5.19;99.99
71436;SHT31;59251;51.326;12.370;2023-04-08T04:20:13;5.22;99.99
71436;SHT31;59251;51.326;12.370;2023-04-08T04:22:38;5.26;99.99
71436;SHT31;59251;51.326;12.370;2023-04-08T04:25:04;5.23;99.99
71436;SHT31;59251;51.326;12.370;2023-04-08T04:27:30;5.20;99.99
71436;SHT31;59251;51.326;12.370;2023-04-08T04:29:55;5.29;99.99
71436;SHT31;59251;51.326;12.370;2023-04-08T04:32:21;5.33;99.99
71436;SHT31;59251;51.326;12.370;2023-04-08T04:34:46;5.36;99.99
71436;SHT31;59251;51.326;12.370;2023-04-08T04:37:11;5.30;99.99
71436;SHT31;59251;51.326;12.370;2023-04-08T04:39:37;5.33;99.99
71436;SHT31;59251;51.326;12.370;2023-04-08T04:42:03;5.36;99.99
71436;SHT31;59251;51.326;12.370;2023-04-08T04:44:28;5.36;99.99
71436;SHT31;59251;51.326;12.370;2023-04-08T04:46:54;5.40;99.99
71436;SHT31;59251;51.326;12.370;2023-04-08T04:49:20;5.39;99.99
71436;SHT31;59251;51.326;12.370;2023-04-08T04:51:45;5.40;99.99
71436;SHT31;59251;51.326;12.370;2023-04-08T04:54:11;5.36;99.99
71436;SHT31;59251;51.326;12.370;2023-04-08T04:56:36;5.37;99.99
71436;SHT31;59251;51.326;12.370;2023-04-08T04:59:01;5.34;99.99
71436;SHT31;59251;51.326;12.370;2023-04-08T05:01:27;5.34;99.99
71436;SHT31;59251;51.326;12.370;2023-04-08T05:03:53;5.34;99.99
71436;SHT31;59251;51.326;12.370;2023-04-08T05:06:18;5.31;99.99
71436;SHT31;59251;51.326;12.370;2023-04-08T05:08:44;5.39;99.99
71436;SHT31;59251;51.326;12.370;2023-04-08T05:11:09;5.36;99.99
71436;SHT31;59251;51.326;12.370;2023-04-08T05:13:35;5.37;99.99
71436;SHT31;59251;51.326;12.370;2023-04-08T05:16:00;5.41;99.99
71436;SHT31;59251;51.326;12.370;2023-04-08T05:18:26;5.40;99.99
71436;SHT31;59251;51.326;12.370;2023-04-08T05:20:51;5.47;99.99
71436;SHT31;59251;51.326;12.370;2023-04-08T05:23:17;5.46;99.99
71436;SHT31;59251;51.326;12.370;2023-04-08T05:25:42;5.44;99.99
71436;SHT31;59251;51.326;12.370;2023-04-08T05:28:08;5.55;99.99
71436;SHT31;59251;51.326;12.370;2023-04-08T05:30:33;5.57;99.99
71436;SHT31;59251;51.326;12.370;2023-04-08T05:32:58;5.58;99.99
71436;SHT31;59251;51.326;12.370;2023-04-08T05:35:24;5.48;99.99
71436;SHT31;59251;51.326;12.370;2023-04-08T05:37:49;5.54;99.99
71436;SHT31;59251;51.326;12.370;2023-04-08T05:40:14;5.54;99.99
71436;SHT31;59251;51.326;12.370;2023-04-08T05:42:40;5.54;99.99
71436;SHT31;59251;51.326;12.370;2023-04-08T05:45:07;5.55;99.99
71436;SHT31;59251;51.326;12.370;2023-04-08T05:47:32;5.57;99.99
71436;SHT31;59251;51.326;12.370;2023-04-08T05:49:58;5.55;99.99
71436;SHT31;59251;51.326;12.370;2023-04-08T05:52:23;5.52;99.99
71436;SHT31;59251;51.326;12.370;2023-04-08T05:54:48;5.47;99.99
71436;SHT31;59251;51.326;12.370;2023-04-08T05:57:14;5.52;99.99
71436;SHT31;59251;51.326;12.370;2023-04-08T05:59:40;5.44;99.99
71436;SHT31;59251;51.326;12.370;2023-04-08T06:02:06;5.48;99.99
71436;SHT31;59251;51.326;12.370;2023-04-08T06:04:31;5.51;99.99
71436;SHT31;59251;51.326;12.370;2023-04-08T06:06:57;5.54;99.99
71436;SHT31;59251;51.326;12.370;2023-04-08T06:09:24;5.54;99.99
71436;SHT31;59251;51.326;12.370;2023-04-08T06:11:50;5.57;99.99
71436;SHT31;59251;51.326;12.370;2023-04-08T06:14:15;5.54;99.99
71436;SHT31;59251;51.326;12.370;2023-04-08T06:16:41;5.52;99.99
71436;SHT31;59251;51.326;12.370;2023-04-08T06:19:06;5.60;99.99
71436;SHT31;59251;51.326;12.370;2023-04-08T06:21:31;5.62;99.99
71436;SHT31;59251;51.326;12.370;2023-04-08T06:23:57;5.68;99.99
71436;SHT31;59251;51.326;12.370;2023-04-08T06:26:22;5.72;99.99
71436;SHT31;59251;51.326;12.370;2023-04-08T06:28:47;5.70;99.99
71436;SHT31;59251;51.326;12.370;2023-04-08T06:31:13;5.72;99.99
71436;SHT31;59251;51.326;12.370;2023-04-08T06:33:38;5.75;99.99
71436;SHT31;59251;51.326;12.370;2023-04-08T06:36:04;5.72;99.99
71436;SHT31;59251;51.326;12.370;2023-04-08T06:38:30;5.82;99.99
71436;SHT31;59251;51.326;12.370;2023-04-08T06:41:04;5.88;99.99
71436;SHT31;59251;51.326;12.370;2023-04-08T06:43:30;5.87;99.99
71436;SHT31;59251;51.326;12.370;2023-04-08T06:45:55;5.94;99.99
71436;SHT31;59251;51.326;12.370;2023-04-08T06:48:22;5.89;99.99
71436;SHT31;59251;51.326;12.370;2023-04-08T06:50:48;5.94;99.99
71436;SHT31;59251;51.326;12.370;2023-04-08T06:53:13;5.88;99.99
71436;SHT31;59251;51.326;12.370;2023-04-08T06:55:39;5.97;99.99
71436;SHT31;59251;51.326;12.370;2023-04-08T06:58:04;5.92;99.99
71436;SHT31;59251;51.326;12.370;2023-04-08T07:00:30;5.87;99.99
71436;SHT31;59251;51.326;12.370;2023-04-08T07:02:55;5.84;99.99
71436;SHT31;59251;51.326;12.370;2023-04-08T07:05:20;5.81;99.99
71436;SHT31;59251;51.326;12.370;2023-04-08T07:07:46;5.87;99.99
71436;SHT31;59251;51.326;12.370;2023-04-08T07:10:11;5.92;99.99
71436;SHT31;59251;51.326;12.370;2023-04-08T07:12:37;5.94;99.99
71436;SHT31;59251;51.326;12.370;2023-04-08T07:15:02;6.02;99.99
71436;SHT31;59251;51.326;12.370;2023-04-08T07:17:28;6.13;99.99
71436;SHT31;59251;51.326;12.370;2023-04-08T07:19:53;6.20;99.99
71436;SHT31;59251;51.326;12.370;2023-04-08T07:22:18;6.22;99.99
71436;SHT31;59251;51.326;12.370;2023-04-08T07:24:44;6.23;99.99
71436;SHT31;59251;51.326;12.370;2023-04-08T07:27:14;6.33;99.99
71436;SHT31;59251;51.326;12.370;2023-04-08T07:29:40;6.33;99.99
71436;SHT31;59251;51.326;12.370;2023-04-08T07:32:06;6.34;99.99
71436;SHT31;59251;51.326;12.370;2023-04-08T07:34:34;6.32;99.99
71436;SHT31;59251;51.326;12.370;2023-04-08T07:37:00;6.41;99.99
71436;SHT31;59251;51.326;12.370;2023-04-08T07:39:25;6.20;99.99
71436;SHT31;59251;51.326;12.370;2023-04-08T07:41:50;6.40;99.99
71436;SHT31;59251;51.326;12.370;2023-04-08T07:44:16;6.29;99.99
71436;SHT31;59251;51.326;12.370;2023-04-08T07:46:41;6.19;99.99
71436;SHT31;59251;51.326;12.370;2023-04-08T07:49:08;6.36;99.99
71436;SHT31;59251;51.326;12.370;2023-04-08T07:51:33;6.50;99.99
71436;SHT31;59251;51.326;12.370;2023-04-08T07:53:59;6.70;99.45
71436;SHT31;59251;51.326;12.370;2023-04-08T07:56:24;6.83;98.39
71436;SHT31;59251;51.326;12.370;2023-04-08T07:58:50;7.02;98.15
71436;SHT31;59251;51.326;12.370;2023-04-08T08:01:17;7.26;97.20
71436;SHT31;59251;51.326;12.370;2023-04-08T08:03:43;7.32;97.01
71436;SHT31;59251;51.326;12.370;2023-04-08T08:06:10;7.50;97.05
71436;SHT31;59251;51.326;12.370;2023-04-08T08:08:35;7.36;96.65
71436;SHT31;59251;51.326;12.370;2023-04-08T08:11:01;7.34;96.53
71436;SHT31;59251;51.326;12.370;2023-04-08T08:13:26;7.56;96.36
71436;SHT31;59251;51.326;12.370;2023-04-08T08:15:52;7.25;95.91
71436;SHT31;59251;51.326;12.370;2023-04-08T08:18:17;7.16;97.48
71436;SHT31;59251;51.326;12.370;2023-04-08T08:20:43;7.33;96.18
71436;SHT31;59251;51.326;12.370;2023-04-08T08:23:08;7.30;96.82
71436;SHT31;59251;51.326;12.370;2023-04-08T08:25:33;7.44;96.53
71436;SHT31;59251;51.326;12.370;2023-04-08T08:27:59;7.30;95.80
71436;SHT31;59251;51.326;12.370;2023-04-08T08:30:24;7.12;96.14
71436;SHT31;59251;51.326;12.370;2023-04-08T08:32:50;7.33;96.35
71436;SHT31;59251;51.326;12.370;2023-04-08T08:35:16;7.59;95.79
71436;SHT31;59251;51.326;12.370;2023-04-08T08:37:41;7.54;94.59
71436;SHT31;59251;51.326;12.370;2023-04-08T08:40:07;7.49;94.43
71436;SHT31;59251;51.326;12.370;2023-04-08T08:42:33;7.49;94.76
71436;SHT31;59251;51.326;12.370;2023-04-08T08:45:01;7.54;94.77
71436;SHT31;59251;51.326;12.370;2023-04-08T08:47:27;7.57;94.88
71436;SHT31;59251;51.326;12.370;2023-04-08T08:49:53;7.84;94.37
71436;SHT31;59251;51.326;12.370;2023-04-08T08:52:18;7.61;95.47
71436;SHT31;59251;51.326;12.370;2023-04-08T08:54:44;7.75;94.72
71436;SHT31;59251;51.326;12.370;2023-04-08T08:57:19;7.66;94.61
71436;SHT31;59251;51.326;12.370;2023-04-08T08:59:45;8.06;94.40
71436;SHT31;59251;51.326;12.370;2023-04-08T09:02:25;8.38;93.03
71436;SHT31;59251;51.326;12.370;2023-04-08T09:04:59;8.77;91.59
71436;SHT31;59251;51.326;12.370;2023-04-08T09:07:26;8.52;91.80
71436;SHT31;59251;51.326;12.370;2023-04-08T09:09:53;8.91;90.52
71436;SHT31;59251;51.326;12.370;2023-04-08T09:12:18;9.05;89.88
71436;SHT31;59251;51.326;12.370;2023-04-08T09:14:44;9.07;89.93
71436;SHT31;59251;51.326;12.370;2023-04-08T09:17:10;8.84;88.46
71436;SHT31;59251;51.326;12.370;2023-04-08T09:19:36;9.11;89.29
71436;SHT31;59251;51.326;12.370;2023-04-08T09:22:09;9.14;89.30
71436;SHT31;59251;51.326;12.370;2023-04-08T09:24:35;9.07;88.22
71436;SHT31;59251;51.326;12.370;2023-04-08T09:27:02;8.88;88.99
71436;SHT31;59251;51.326;12.370;2023-04-08T09:29:28;8.71;89.52
71436;SHT31;59251;51.326;12.370;2023-04-08T09:31:54;8.64;90.35
71436;SHT31;59251;51.326;12.370;2023-04-08T09:34:20;8.52;90.72
71436;SHT31;59251;51.326;12.370;2023-04-08T09:36:47;8.63;90.27
71436;SHT31;59251;51.326;12.370;2023-04-08T09:39:14;8.78;90.27
71436;SHT31;59251;51.326;12.370;2023-04-08T09:41:40;8.71;91.34
71436;SHT31;59251;51.326;12.370;2023-04-08T09:44:08;8.90;90.14
71436;SHT31;59251;51.326;12.370;2023-04-08T09:47:00;8.57;90.78
71436;SHT31;59251;51.326;12.370;2023-04-08T09:49:45;8.42;91.32
71436;SHT31;59251;51.326;12.370;2023-04-08T09:52:20;8.88;89.63
71436;SHT31;59251;51.326;12.370;2023-04-08T09:57:30;8.83;89.22
71436;SHT31;59251;51.326;12.370;2023-04-08T10:00:10;8.98;89.21
71436;SHT31;59251;51.326;12.370;2023-04-08T10:02:52;8.92;89.75
71436;SHT31;59251;51.326;12.370;2023-04-08T10:05:19;9.07;89.48
71436;SHT31;59251;51.326;12.370;2023-04-08T10:07:45;9.01;89.10
71436;SHT31;59251;51.326;12.370;2023-04-08T10:10:10;8.46;90.73
71436;SHT31;59251;51.326;12.370;2023-04-08T10:12:36;8.69;90.61
71436;SHT31;59251;51.326;12.370;2023-04-08T10:17:52;8.46;89.90
71436;SHT31;59251;51.326;12.370;2023-04-08T10:22:58;8.43;90.15
71436;SHT31;59251;51.326;12.370;2023-04-08T10:25:31;8.52;90.44
71436;SHT31;59251;51.326;12.370;2023-04-08T10:28:01;8.49;90.98
71436;SHT31;59251;51.326;12.370;2023-04-08T10:35:36;8.81;89.78
71436;SHT31;59251;51.326;12.370;2023-04-08T10:38:02;8.78;89.36
71436;SHT31;59251;51.326;12.370;2023-04-08T10:40:28;8.48;90.57
71436;SHT31;59251;51.326;12.370;2023-04-08T10:42:57;8.76;90.01
71436;SHT31;59251;51.326;12.370;2023-04-08T10:45:23;8.85;89.88
71436;SHT31;59251;51.326;12.370;2023-04-08T10:47:49;8.90;89.90
71436;SHT31;59251;51.326;12.370;2023-04-08T10:50:16;9.00;89.44
71436;SHT31;59251;51.326;12.370;2023-04-08T10:52:48;8.98;88.89
71436;SHT31;59251;51.326;12.370;2023-04-08T10:55:14;9.19;89.03
71436;SHT31;59251;51.326;12.370;2023-04-08T10:57:40;9.25;89.38
71436;SHT31;59251;51.326;12.370;2023-04-08T11:00:10;9.90;87.16
71436;SHT31;59251;51.326;12.370;2023-04-08T11:02:38;10.07;86.67
71436;SHT31;59251;51.326;12.370;2023-04-08T11:05:04;10.48;84.74
71436;SHT31;59251;51.326;12.370;2023-04-08T11:07:29;10.48;83.85
71436;SHT31;59251;51.326;12.370;2023-04-08T11:09:55;9.97;85.29
71436;SHT31;59251;51.326;12.370;2023-04-08T11:12:24;9.90;85.56
71436;SHT31;59251;51.326;12.370;2023-04-08T11:14:50;9.83;85.67
71436;SHT31;59251;51.326;12.370;2023-04-08T11:17:17;9.69;86.19
71436;SHT31;59251;51.326;12.370;2023-04-08T11:19:43;9.74;86.27
71436;SHT31;59251;51.326;12.370;2023-04-08T11:22:08;9.87;86.00
71436;SHT31;59251;51.326;12.370;2023-04-08T11:24:36;9.84;85.71
71436;SHT31;59251;51.326;12.370;2023-04-08T11:27:04;10.27;85.04
71436;SHT31;59251;51.326;12.370;2023-04-08T11:29:30;10.48;83.97
71436;SHT31;59251;51.326;12.370;2023-04-08T11:31:57;10.73;82.64
71436;SHT31;59251;51.326;12.370;2023-04-08T11:34:23;10.34;82.33
71436;SHT31;59251;51.326;12.370;2023-04-08T11:36:49;10.80;81.06
71436;SHT31;59251;51.326;12.370;2023-04-08T11:39:15;10.65;81.82
71436;SHT31;59251;51.326;12.370;2023-04-08T11:41:40;10.77;81.86
71436;SHT31;59251;51.326;12.370;2023-04-08T11:44:06;10.99;80.62
71436;SHT31;59251;51.326;12.370;2023-04-08T11:46:32;11.37;79.90
71436;SHT31;59251;51.326;12.370;2023-04-08T11:49:05;11.71;77.85
71436;SHT31;59251;51.326;12.370;2023-04-08T11:51:31;11.16;79.72
71436;SHT31;59251;51.326;12.370;2023-04-08T11:53:58;10.75;81.81
71436;SHT31;59251;51.326;12.370;2023-04-08T11:56:24;11.00;79.19
71436;SHT31;59251;51.326;12.370;2023-04-08T11:58:50;10.89;78.00
71436;SHT31;59251;51.326;12.370;2023-04-08T12:01:15;10.48;78.53
71436;SHT31;59251;51.326;12.370;2023-04-08T12:03:57;10.53;79.47
71436;SHT31;59251;51.326;12.370;2023-04-08T12:06:23;10.18;79.85
71436;SHT31;59251;51.326;12.370;2023-04-08T12:08:49;10.83;78.89
71436;SHT31;59251;51.326;12.370;2023-04-08T12:11:15;10.96;77.80
71436;SHT31;59251;51.326;12.370;2023-04-08T12:13:41;11.55;77.23
71436;SHT31;59251;51.326;12.370;2023-04-08T12:16:06;11.85;76.83
71436;SHT31;59251;51.326;12.370;2023-04-08T12:18:32;12.26;74.28
71436;SHT31;59251;51.326;12.370;2023-04-08T12:20:57;12.09;74.65
71436;SHT31;59251;51.326;12.370;2023-04-08T12:23:22;11.79;75.41
71436;SHT31;59251;51.326;12.370;2023-04-08T12:25:48;11.82;75.03
71436;SHT31;59251;51.326;12.370;2023-04-08T12:28:13;11.66;75.63
71436;SHT31;59251;51.326;12.370;2023-04-08T12:30:38;11.51;76.77
71436;SHT31;59251;51.326;12.370;2023-04-08T12:33:04;11.65;74.61
71436;SHT31;59251;51.326;12.370;2023-04-08T12:35:29;10.95;77.00
71436;SHT31;59251;51.326;12.370;2023-04-08T12:37:55;10.76;77.51
71436;SHT31;59251;51.326;12.370;2023-04-08T12:40:20;11.01;77.54
71436;SHT31;59251;51.326;12.370;2023-04-08T12:42:46;10.73;78.01
71436;SHT31;59251;51.326;12.370;2023-04-08T12:45:12;11.13;77.19
71436;SHT31;59251;51.326;12.370;2023-04-08T12:47:38;11.38;75.58
71436;SHT31;59251;51.326;12.370;2023-04-08T12:50:04;11.24;75.97
71436;SHT31;59251;51.326;12.370;2023-04-08T12:52:30;11.65;75.00
71436;SHT31;59251;51.326;12.370;2023-04-08T12:54:56;11.54;74.28
71436;SHT31;59251;51.326;12.370;2023-04-08T12:57:21;11.89;73.41
71436;SHT31;59251;51.326;12.370;2023-04-08T12:59:46;11.01;75.18
71436;SHT31;59251;51.326;12.370;2023-04-08T13:02:12;10.84;76.43
71436;SHT31;59251;51.326;12.370;2023-04-08T13:04:38;10.48;78.01
71436;SHT31;59251;51.326;12.370;2023-04-08T13:07:03;10.75;76.90
71436;SHT31;59251;51.326;12.370;2023-04-08T13:09:29;10.76;75.59
71436;SHT31;59251;51.326;12.370;2023-04-08T13:11:54;10.55;76.78
71436;SHT31;59251;51.326;12.370;2023-04-08T13:14:20;10.97;75.77
71436;SHT31;59251;51.326;12.370;2023-04-08T13:16:46;11.48;73.61
71436;SHT31;59251;51.326;12.370;2023-04-08T13:19:12;11.65;73.11
71436;SHT31;59251;51.326;12.370;2023-04-08T13:21:37;11.78;72.12
71436;SHT31;59251;51.326;12.370;2023-04-08T13:24:03;11.51;73.12
71436;SHT31;59251;51.326;12.370;2023-04-08T13:26:28;11.58;72.83
71436;SHT31;59251;51.326;12.370;2023-04-08T13:28:53;11.50;73.10
71436;SHT31;59251;51.326;12.370;2023-04-08T13:31:19;11.83;72.30
71436;SHT31;59251;51.326;12.370;2023-04-08T13:33:45;11.51;73.17
71436;SHT31;59251;51.326;12.370;2023-04-08T13:36:10;11.92;73.02
71436;SHT31;59251;51.326;12.370;2023-04-08T13:38:35;12.14;73.31
71436;SHT31;59251;51.326;12.370;2023-04-08T13:41:01;12.12;73.72
71436;SHT31;59251;51.326;12.370;2023-04-08T13:43:26;11.72;73.69
71436;SHT31;59251;51.326;12.370;2023-04-08T13:45:52;11.21;72.57
71436;SHT31;59251;51.326;12.370;2023-04-08T13:48:18;11.58;71.47
71436;SHT31;59251;51.326;12.370;2023-04-08T13:50:43;11.09;72.72
71436;SHT31;59251;51.326;12.370;2023-04-08T13:53:08;11.72;71.97
71436;SHT31;59251;51.326;12.370;2023-04-08T13:55:34;11.38;72.81
71436;SHT31;59251;51.326;12.370;2023-04-08T13:57:59;11.35;73.85
71436;SHT31;59251;51.326;12.370;2023-04-08T14:00:25;11.50;75.40
71436;SHT31;59251;51.326;12.370;2023-04-08T14:02:51;11.37;76.35
71436;SHT31;59251;51.326;12.370;2023-04-08T14:05:16;11.30;76.82
71436;SHT31;59251;51.326;12.370;2023-04-08T14:07:42;10.88;77.21
71436;SHT31;59251;51.326;12.370;2023-04-08T14:10:07;11.00;76.98
71436;SHT31;59251;51.326;12.370;2023-04-08T14:12:33;11.58;75.94
71436;SHT31;59251;51.326;12.370;2023-04-08T14:14:58;11.81;74.79
71436;SHT31;59251;51.326;12.370;2023-04-08T14:17:23;11.93;74.35
71436;SHT31;59251;51.326;12.370;2023-04-08T14:19:49;11.69;75.37
71436;SHT31;59251;51.326;12.370;2023-04-08T14:22:15;11.18;76.76
71436;SHT31;59251;51.326;12.370;2023-04-08T14:24:41;11.14;76.62
71436;SHT31;59251;51.326;12.370;2023-04-08T14:27:06;11.20;77.02
71436;SHT31;59251;51.326;12.370;2023-04-08T14:29:31;11.06;76.87
71436;SHT31;59251;51.326;12.370;2023-04-08T14:31:57;11.18;76.63
71436;SHT31;59251;51.326;12.370;2023-04-08T14:34:22;11.26;76.40
71436;SHT31;59251;51.326;12.370;2023-04-08T14:36:47;11.20;76.58
71436;SHT31;59251;51.326;12.370;2023-04-08T14:39:13;11.00;77.32
71436;SHT31;59251;51.326;12.370;2023-04-08T14:41:38;10.53;77.82
71436;SHT31;59251;51.326;12.370;2023-04-08T14:44:04;10.31;78.65
71436;SHT31;59251;51.326;12.370;2023-04-08T14:46:30;10.35;78.58
71436;SHT31;59251;51.326;12.370;2023-04-08T14:48:55;10.48;77.55
71436;SHT31;59251;51.326;12.370;2023-04-08T14:51:21;10.41;77.71
71436;SHT31;59251;51.326;12.370;2023-04-08T14:53:46;10.27;77.85
71436;SHT31;59251;51.326;12.370;2023-04-08T14:56:11;10.65;77.32
71436;SHT31;59251;51.326;12.370;2023-04-08T14:58:37;10.52;77.31
71436;SHT31;59251;51.326;12.370;2023-04-08T15:01:03;11.03;75.80
71436;SHT31;59251;51.326;12.370;2023-04-08T15:03:28;11.21;75.28
71436;SHT31;59251;51.326;12.370;2023-04-08T15:05:53;10.82;75.68
71436;SHT31;59251;51.326;12.370;2023-04-08T15:08:20;11.35;74.71
71436;SHT31;59251;51.326;12.370;2023-04-08T15:10:45;11.89;71.66
71436;SHT31;59251;51.326;12.370;2023-04-08T15:13:10;11.87;72.94
71436;SHT31;59251;51.326;12.370;2023-04-08T15:15:36;11.35;73.71
71436;SHT31;59251;51.326;12.370;2023-04-08T15:18:01;11.35;74.06
71436;SHT31;59251;51.326;12.370;2023-04-08T15:20:26;11.21;74.12
71436;SHT31;59251;51.326;12.370;2023-04-08T15:22:52;10.90;75.07
71436;SHT31;59251;51.326;12.370;2023-04-08T15:25:18;10.79;75.61
71436;SHT31;59251;51.326;12.370;2023-04-08T15:27:43;10.48;75.81
71436;SHT31;59251;51.326;12.370;2023-04-08T15:30:09;12.19;71.16
71436;SHT31;59251;51.326;12.370;2023-04-08T15:32:34;14.80;64.56
71436;SHT31;59251;51.326;12.370;2023-04-08T15:35:00;13.10;67.66